createdAt,value
2018-07-03T04:51:38.342Z,54.72
2018-07-03T04:52:46.380Z,53.94
2018-07-03T04:53:52.508Z,54.32
2018-07-03T04:54:58.704Z,54.41
2018-07-03T04:56:04.908Z,53.92
2018-07-03T04:57:12.266Z,53.53
2018-07-03T04:58:20.313Z,52.98
2018-07-03T04:59:27.278Z,52.43
2018-07-03T05:00:33.346Z,52.56
2018-07-03T05:01:39.376Z,51.47
2018-07-03T05:02:45.537Z,51.44
2018-07-03T05:03:51.896Z,51.06
2018-07-03T05:04:57.992Z,51.25
2018-07-03T05:06:04.096Z,50.84
2018-07-03T05:07:10.322Z,50.87
2018-07-03T05:08:16.277Z,50.22
2018-07-03T05:09:22.206Z,50.46
2018-07-03T05:10:28.575Z,49.99
2018-07-03T05:11:34.891Z,49.60
2018-07-03T05:12:41.003Z,49.25
2018-07-03T05:13:47.121Z,49.18
2018-07-03T05:14:53.210Z,48.81
2018-07-03T05:15:59.336Z,48.87
2018-07-03T05:17:05.308Z,48.61
2018-07-03T05:18:11.274Z,48.33
2018-07-03T05:19:17.431Z,48.56
2018-07-03T05:20:23.671Z,48.55
2018-07-03T05:21:29.998Z,48.84
2018-07-03T05:22:36.179Z,48.68
2018-07-03T05:23:42.288Z,48.60
2018-07-03T05:24:48.484Z,48.43
2018-07-03T05:25:54.569Z,47.88
2018-07-03T05:27:00.470Z,47.64
2018-07-03T05:28:06.580Z,47.19
2018-07-03T05:29:12.757Z,46.69
2018-07-03T05:30:18.725Z,46.25
2018-07-03T05:31:24.924Z,46.15
2018-07-03T05:32:31.279Z,45.57
2018-07-03T05:33:37.456Z,45.43
2018-07-03T05:34:43.596Z,44.68
2018-07-03T05:35:49.627Z,44.23
2018-07-03T05:36:55.840Z,44.14
2018-07-03T05:38:01.921Z,43.66
2018-07-03T05:39:11.228Z,43.72
2018-07-03T05:40:17.483Z,43.90
2018-07-03T05:41:23.591Z,43.49
2018-07-03T05:42:31.850Z,43.47
2018-07-03T05:43:37.974Z,43.16
2018-07-03T05:44:44.106Z,43.33
2018-07-03T05:45:50.294Z,42.95
2018-07-03T05:46:56.373Z,42.60
2018-07-03T05:48:02.733Z,42.22
2018-07-03T05:49:08.906Z,42.07
2018-07-03T05:50:14.889Z,42.10
2018-07-03T05:51:21.169Z,41.40
2018-07-03T05:52:28.671Z,41.69
2018-07-03T05:53:34.927Z,40.98
2018-07-03T05:54:40.975Z,41.05
2018-07-03T05:55:47.106Z,40.53
2018-07-03T05:56:53.398Z,39.83
2018-07-03T05:57:59.379Z,39.57
2018-07-03T05:59:05.664Z,39.86
2018-07-03T06:00:11.897Z,39.72
2018-07-03T06:01:18.137Z,39.13
2018-07-03T06:02:24.213Z,39.57
2018-07-03T06:03:30.391Z,39.02
2018-07-03T06:04:36.507Z,38.66
2018-07-03T06:05:42.553Z,38.51
2018-07-03T06:06:48.750Z,38.32
2018-07-03T06:07:55.211Z,38.16
2018-07-03T06:09:02.248Z,37.88
2018-07-03T06:10:08.481Z,37.85
2018-07-03T06:11:14.659Z,37.87
2018-07-03T06:12:20.737Z,37.68
2018-07-03T06:13:27.309Z,37.13
2018-07-03T06:14:33.569Z,37.42
2018-07-03T06:15:39.761Z,37.34
2018-07-03T06:16:45.961Z,36.30
2018-07-03T06:17:52.132Z,36.13
2018-07-03T06:18:58.447Z,35.60
2018-07-03T06:20:04.823Z,36.01
2018-07-03T06:21:10.913Z,35.89
2018-07-03T06:22:17.006Z,35.74
2018-07-03T06:23:23.039Z,35.38
2018-07-03T06:24:28.987Z,35.69
2018-07-03T06:25:35.317Z,34.96
2018-07-03T06:26:41.358Z,34.70
2018-07-03T06:27:47.441Z,34.41
2018-07-03T06:28:53.827Z,34.51
2018-07-03T06:30:00.125Z,34.88
2018-07-03T06:31:06.710Z,33.83
2018-07-03T06:32:13.001Z,33.83
2018-07-03T06:33:19.290Z,34.18
2018-07-03T06:34:25.585Z,33.50
2018-07-03T06:35:31.940Z,33.90
2018-07-03T06:36:38.055Z,33.52
2018-07-03T06:37:46.080Z,33.73
2018-07-03T06:38:52.513Z,33.39
2018-07-03T06:39:58.844Z,32.94
2018-07-03T06:41:05.214Z,33.22
2018-07-03T06:42:11.404Z,33.95
2018-07-03T06:43:17.535Z,32.92
2018-07-03T06:44:23.905Z,32.12
2018-07-03T06:45:30.141Z,32.30
2018-07-03T06:46:37.275Z,32.71
2018-07-03T06:47:43.447Z,31.64
2018-07-03T06:48:49.573Z,31.47
2018-07-03T06:49:56.926Z,31.87
2018-07-03T06:51:03.141Z,32.13
2018-07-03T06:52:09.945Z,31.51
2018-07-03T06:53:17.292Z,31.41
2018-07-03T06:54:23.398Z,31.17
2018-07-03T06:55:30.425Z,31.45
2018-07-03T06:56:36.737Z,30.91
2018-07-03T06:57:42.902Z,30.72
2018-07-03T06:58:51.598Z,31.32
2018-07-03T06:59:57.953Z,30.87
2018-07-03T07:01:04.111Z,30.83
2018-07-03T07:02:10.192Z,30.85
2018-07-03T07:03:16.326Z,30.50
2018-07-03T07:04:22.658Z,30.25
2018-07-03T07:05:29.522Z,29.68
2018-07-03T07:06:35.719Z,29.95
2018-07-03T07:07:42.069Z,29.48
2018-07-03T07:08:48.295Z,29.59
2018-07-03T07:09:54.621Z,29.93
2018-07-03T07:11:00.923Z,28.91
2018-07-03T07:12:07.253Z,28.81
2018-07-03T07:13:14.957Z,28.80
2018-07-03T07:14:22.180Z,29.29
2018-07-03T07:15:28.361Z,29.31
2018-07-03T07:16:34.825Z,28.34
2018-07-03T07:17:42.049Z,28.72
2018-07-03T07:18:48.725Z,28.24
2018-07-03T07:19:54.951Z,27.91
2018-07-03T07:21:01.157Z,27.80
2018-07-03T07:22:07.361Z,28.15
2018-07-03T07:23:13.551Z,28.40
2018-07-03T07:24:19.673Z,28.72
2018-07-03T07:25:26.497Z,28.62
2018-07-03T07:26:32.725Z,27.66
2018-07-03T07:27:39.049Z,27.75
2018-07-03T07:28:45.358Z,26.89
2018-07-03T07:29:51.747Z,26.84
2018-07-03T07:30:58.105Z,27.09
2018-07-03T07:32:04.279Z,27.07
2018-07-03T07:33:10.595Z,26.85
2018-07-03T07:34:16.833Z,26.50
2018-07-03T07:35:22.923Z,26.72
2018-07-03T07:36:32.131Z,26.91
2018-07-03T07:38:06.955Z,26.61
2018-07-03T07:39:22.605Z,26.83
2018-07-03T07:40:58.323Z,26.48
2018-07-03T07:42:36.258Z,26.67
2018-07-03T07:44:01.165Z,26.62
2018-07-03T07:45:13.227Z,26.26
2018-07-03T07:46:21.023Z,25.60
2018-07-03T07:47:28.155Z,25.46
2018-07-03T07:48:35.394Z,25.67
2018-07-03T07:49:42.656Z,25.94
2018-07-03T07:50:49.876Z,25.64
2018-07-03T07:51:55.995Z,25.53
2018-07-03T07:53:03.434Z,25.29
2018-07-03T07:54:09.876Z,25.60
2018-07-03T07:55:15.959Z,25.49
2018-07-03T07:56:22.171Z,25.52
2018-07-03T07:57:30.277Z,26.09
2018-07-03T07:58:36.358Z,26.02
2018-07-03T07:59:42.786Z,26.79
2018-07-03T08:00:48.785Z,27.07
2018-07-03T08:01:55.074Z,27.83
2018-07-03T08:03:01.244Z,28.51
2018-07-03T08:04:07.526Z,29.24
2018-07-03T08:05:13.803Z,29.65
2018-07-03T08:06:20.126Z,30.15
2018-07-03T08:07:27.710Z,30.46
2018-07-03T08:08:33.845Z,30.35
2018-07-03T08:09:40.440Z,30.51
2018-07-03T08:10:46.546Z,30.68
2018-07-03T08:11:52.628Z,30.62
2018-07-03T08:12:58.707Z,31.40
2018-07-03T08:14:05.970Z,31.74
2018-07-03T08:15:12.425Z,32.10
2018-07-03T08:16:18.608Z,31.45
2018-07-03T08:17:24.873Z,31.43
2018-07-03T08:18:31.277Z,31.85
2018-07-03T08:19:38.928Z,31.98
2018-07-03T08:20:46.452Z,32.17
2018-07-03T08:21:55.059Z,30.96
2018-07-03T08:23:01.242Z,31.18
2018-07-03T08:24:07.455Z,31.49
2018-07-03T08:25:13.707Z,31.98
2018-07-03T08:26:19.851Z,31.75
2018-07-03T08:27:25.964Z,32.48
2018-07-03T08:28:33.105Z,32.67
2018-07-03T08:29:39.342Z,32.29
2018-07-03T08:30:45.684Z,32.10
2018-07-03T08:31:51.930Z,32.58
2018-07-03T08:32:58.876Z,32.87
2018-07-03T08:34:05.280Z,33.30
2018-07-03T08:35:12.440Z,33.36
2018-07-03T08:36:18.672Z,33.48
2018-07-03T08:37:25.182Z,34.27
2018-07-03T08:38:32.496Z,34.41
2018-07-03T08:39:38.791Z,34.19
2018-07-03T08:40:46.078Z,34.23
2018-07-03T08:41:52.380Z,34.23
2018-07-03T08:42:58.628Z,34.54
2018-07-03T08:44:05.120Z,35.26
2018-07-03T08:45:11.420Z,35.06
2018-07-03T08:46:19.326Z,34.76
2018-07-03T08:47:25.438Z,34.68
2018-07-03T08:48:33.731Z,33.40
2018-07-03T08:49:40.254Z,33.22
2018-07-03T08:50:46.848Z,33.11
2018-07-03T08:51:53.036Z,33.78
2018-07-03T08:52:59.626Z,33.12
2018-07-03T08:54:05.995Z,33.31
2018-07-03T08:55:12.356Z,33.45
2018-07-03T08:56:18.812Z,33.83
2018-07-03T08:57:25.170Z,34.07
2018-07-03T08:58:33.640Z,34.41
2018-07-03T08:59:41.221Z,34.40
2018-07-03T09:00:48.246Z,34.71
2018-07-03T09:01:54.550Z,34.73
2018-07-03T09:03:00.702Z,34.77
2018-07-03T09:04:08.287Z,34.89
2018-07-03T09:05:16.211Z,34.67
2018-07-03T09:06:24.604Z,33.96
2018-07-03T09:07:30.922Z,34.50
2018-07-03T09:08:37.340Z,33.70
2018-07-03T09:09:43.634Z,33.68
2018-07-03T09:10:51.463Z,33.97
2018-07-03T09:11:59.123Z,33.73
2018-07-03T09:13:05.420Z,33.76
2018-07-03T09:14:11.677Z,33.32
2018-07-03T09:15:17.968Z,33.61
2018-07-03T09:16:24.294Z,32.98
2018-07-03T09:17:31.222Z,32.55
2018-07-03T09:18:37.508Z,31.93
2018-07-03T09:19:43.767Z,32.20
2018-07-03T09:20:49.946Z,31.63
2018-07-03T09:21:56.280Z,32.17
2018-07-03T09:23:03.822Z,31.53
2018-07-03T09:24:10.194Z,31.97
2018-07-03T09:25:17.368Z,32.35
2018-07-03T09:26:23.798Z,32.44
2018-07-03T09:27:29.886Z,31.17
2018-07-03T09:28:35.950Z,31.53
2018-07-03T09:29:42.173Z,31.02
2018-07-03T09:30:48.436Z,31.02
2018-07-03T09:31:54.736Z,31.29
2018-07-03T09:33:02.233Z,31.71
2018-07-03T09:34:08.423Z,31.19
2018-07-03T09:35:14.666Z,31.82
2018-07-03T09:36:20.687Z,32.18
2018-07-03T09:37:26.874Z,32.58
2018-07-03T09:38:34.508Z,32.96
2018-07-03T09:39:40.668Z,33.43
2018-07-03T09:40:46.810Z,33.81
2018-07-03T09:41:53.838Z,33.47
2018-07-03T09:43:00.466Z,34.02
2018-07-03T09:44:06.729Z,34.27
2018-07-03T09:45:12.943Z,34.24
2018-07-03T09:46:20.127Z,34.70
2018-07-03T09:47:26.628Z,35.35
2018-07-03T09:48:33.234Z,35.19
2018-07-03T09:49:40.413Z,35.09
2018-07-03T09:50:46.735Z,35.69
2018-07-03T09:51:54.226Z,35.70
2018-07-03T09:53:01.586Z,35.24
2018-07-03T09:54:07.910Z,35.82
2018-07-03T09:55:14.068Z,36.17
2018-07-03T09:56:20.264Z,35.83
2018-07-03T09:57:26.542Z,35.59
2018-07-03T09:58:32.860Z,35.71
2018-07-03T09:59:39.954Z,35.76
2018-07-03T10:00:52.657Z,35.75
2018-07-03T10:02:01.118Z,35.92
2018-07-03T10:03:07.823Z,36.43
2018-07-03T10:04:14.785Z,36.40
2018-07-03T10:05:21.132Z,35.99
2018-07-03T10:06:27.324Z,36.50
2018-07-03T10:07:33.528Z,36.42
2018-07-03T10:08:39.942Z,35.96
2018-07-03T10:09:46.082Z,36.04
2018-07-03T10:10:52.052Z,36.60
2018-07-03T10:11:58.132Z,36.13
2018-07-03T10:13:04.272Z,36.60
2018-07-03T10:14:10.607Z,36.73
2018-07-03T10:15:16.787Z,36.43
2018-07-03T10:16:22.868Z,36.54
2018-07-03T10:17:28.906Z,36.68
2018-07-03T10:18:36.096Z,36.45
2018-07-03T10:19:44.198Z,36.41
2018-07-03T10:20:51.228Z,36.46
2018-07-03T10:21:57.448Z,36.78
2018-07-03T10:23:04.758Z,36.09
2018-07-03T10:24:11.814Z,36.26
2018-07-03T10:25:19.112Z,36.08
2018-07-03T10:26:25.202Z,36.04
2018-07-03T10:27:31.316Z,35.91
2018-07-03T10:28:37.476Z,36.11
2018-07-03T10:29:43.561Z,36.41
2018-07-03T10:30:49.854Z,36.21
2018-07-03T10:31:56.337Z,36.38
2018-07-03T10:33:04.870Z,35.64
2018-07-03T10:34:11.130Z,35.54
2018-07-03T10:35:17.543Z,35.53
2018-07-03T10:36:23.835Z,35.59
2018-07-03T10:37:30.077Z,35.62
2018-07-03T10:38:37.288Z,35.71
2018-07-03T10:39:43.380Z,35.81
2018-07-03T10:40:49.660Z,35.83
2018-07-03T10:41:55.870Z,35.64
2018-07-03T10:43:02.099Z,35.46
2018-07-03T10:44:09.671Z,35.66
2018-07-03T10:45:16.339Z,35.92
2018-07-03T10:46:22.683Z,36.00
2018-07-03T10:47:28.800Z,36.43
2018-07-03T10:48:35.492Z,36.64
2018-07-03T10:49:41.758Z,35.97
2018-07-03T10:50:47.867Z,36.04
2018-07-03T10:51:53.975Z,36.12
2018-07-03T10:53:00.151Z,36.66
2018-07-03T10:54:06.219Z,36.80
2018-07-03T10:56:27.823Z,36.33
2018-07-03T10:57:33.997Z,36.95
2018-07-03T11:00:07.887Z,36.40
2018-07-03T11:01:43.170Z,36.89
2018-07-03T11:02:49.314Z,36.52
2018-07-03T11:04:09.559Z,36.82
2018-07-03T11:05:15.819Z,36.85
2018-07-03T11:06:22.075Z,36.17
2018-07-03T11:07:38.257Z,36.46
2018-07-03T11:09:32.572Z,36.66
2018-07-03T11:10:40.848Z,36.82
2018-07-03T11:11:58.340Z,36.78
2018-07-03T11:13:29.074Z,36.29
2018-07-03T11:14:35.221Z,36.39
2018-07-03T11:15:55.018Z,36.87
2018-07-03T11:17:01.202Z,36.33
2018-07-03T11:18:07.420Z,36.59
2018-07-03T11:19:13.846Z,36.39
2018-07-03T11:20:20.005Z,36.18
2018-07-03T11:22:40.190Z,36.12
2018-07-03T11:23:46.592Z,36.02
2018-07-03T11:24:52.792Z,36.15
2018-07-03T11:25:58.912Z,36.14
2018-07-03T11:27:13.931Z,35.85
2018-07-03T11:28:30.203Z,36.23
2018-07-03T11:29:36.387Z,35.78
2018-07-03T11:34:53.864Z,36.23
2018-07-03T11:36:00.510Z,36.27
2018-07-03T11:37:12.368Z,36.10
2018-07-03T11:38:27.249Z,35.90
2018-07-03T11:39:33.313Z,35.89
2018-07-03T11:40:39.754Z,36.06
2018-07-03T11:41:52.110Z,35.84
2018-07-03T11:44:22.673Z,35.85
2018-07-03T11:46:52.934Z,35.49
2018-07-03T11:48:00.049Z,35.13
2018-07-03T11:49:06.408Z,35.35
2018-07-03T11:50:27.252Z,35.94
2018-07-03T11:51:33.608Z,36.29
2018-07-03T11:53:53.746Z,36.01
2018-07-03T11:55:00.064Z,36.01
2018-07-03T11:56:08.283Z,36.62
2018-07-03T11:57:16.298Z,36.68
2018-07-03T11:58:23.201Z,36.25
2018-07-03T11:59:30.489Z,36.14
2018-07-03T12:00:55.918Z,36.70
2018-07-03T12:02:03.106Z,36.46
2018-07-03T12:10:04.683Z,38.11
2018-07-03T12:11:12.462Z,37.82
2018-07-03T12:13:42.341Z,38.24
2018-07-03T12:14:48.617Z,38.25
2018-07-03T12:15:54.828Z,38.08
2018-07-03T12:17:01.972Z,37.73
2018-07-03T12:19:16.291Z,38.11
2018-07-03T12:21:50.081Z,38.17
2018-07-03T12:23:00.347Z,38.26
2018-07-03T12:24:20.153Z,37.71
2018-07-03T12:25:28.178Z,38.22
2018-07-03T12:26:34.817Z,38.17
2018-07-03T12:27:49.500Z,37.66
2018-07-03T12:29:04.063Z,37.66
2018-07-03T12:30:13.274Z,38.01
2018-07-03T12:31:20.320Z,37.70
2018-07-03T12:32:27.303Z,37.52
2018-07-03T12:33:34.574Z,37.65
2018-07-03T12:34:41.143Z,37.84
2018-07-03T12:35:48.214Z,37.31
2018-07-03T12:38:45.996Z,37.34
2018-07-03T12:40:17.754Z,37.48
2018-07-03T12:41:24.510Z,37.05
2018-07-03T12:42:31.721Z,37.57
2018-07-03T12:43:38.886Z,37.51
2018-07-03T12:44:45.140Z,37.42
2018-07-03T12:45:52.240Z,37.44
2018-07-03T12:46:58.495Z,37.64
2018-07-03T12:48:04.892Z,37.58
2018-07-03T12:49:12.483Z,37.04
2018-07-03T12:50:19.647Z,36.96
2018-07-03T12:51:26.790Z,37.17
2018-07-03T12:52:33.233Z,36.67
2018-07-03T12:53:41.910Z,36.88
2018-07-03T12:54:49.710Z,36.24
2018-07-03T12:55:57.395Z,35.61
2018-07-03T12:57:03.670Z,36.14
2018-07-03T12:58:09.716Z,35.76
2018-07-03T12:59:15.909Z,35.91
2018-07-03T13:00:22.487Z,36.36
2018-07-03T13:01:29.738Z,35.84
2018-07-03T13:02:37.124Z,36.08
2018-07-03T13:03:45.114Z,36.24
2018-07-03T13:04:51.583Z,36.37
2018-07-03T13:05:57.963Z,36.10
2018-07-03T13:07:05.721Z,35.54
2018-07-03T13:08:12.704Z,35.89
2018-07-03T13:09:19.015Z,36.27
2018-07-03T13:10:25.192Z,35.81
2018-07-03T13:11:31.619Z,35.65
2018-07-03T13:12:38.039Z,35.50
2018-07-03T13:13:44.280Z,35.28
2018-07-03T13:14:50.551Z,34.85
2018-07-03T13:15:57.704Z,34.75
2018-07-03T13:17:05.636Z,35.05
2018-07-03T13:18:18.714Z,34.66
2018-07-03T13:19:25.900Z,35.24
2018-07-03T13:20:33.896Z,35.16
2018-07-03T13:21:41.286Z,34.90
2018-07-03T13:22:50.004Z,35.00
2018-07-03T13:23:57.080Z,35.58
2018-07-03T13:25:04.331Z,35.22
2018-07-03T13:26:10.621Z,35.26
2018-07-03T13:27:17.924Z,35.54
2018-07-03T13:28:25.272Z,35.79
2018-07-03T13:29:32.271Z,35.39
2018-07-03T13:30:41.104Z,35.48
2018-07-03T13:31:48.942Z,36.04
2018-07-03T13:32:56.894Z,36.15
2018-07-03T13:34:04.081Z,35.75
2018-07-03T13:35:11.640Z,35.77
2018-07-03T13:36:17.910Z,35.77
2018-07-03T13:37:24.396Z,35.21
2018-07-03T13:38:32.072Z,35.59
2018-07-03T13:39:39.175Z,35.04
2018-07-03T13:40:46.092Z,34.73
2018-07-03T13:41:53.447Z,35.29
2018-07-03T13:43:00.066Z,35.41
2018-07-03T13:44:08.057Z,35.97
2018-07-03T13:45:14.342Z,35.21
2018-07-03T13:46:21.440Z,35.66
2018-07-03T13:47:29.463Z,35.22
2018-07-03T13:48:37.122Z,35.34
2018-07-03T13:49:43.172Z,35.66
2018-07-03T13:50:49.800Z,35.32
2018-07-03T13:51:55.876Z,35.72
2018-07-03T13:53:16.731Z,35.37
2018-07-03T13:54:26.742Z,35.86
2018-07-03T13:55:33.076Z,35.64
2018-07-03T13:56:40.125Z,35.17
2018-07-03T13:57:47.653Z,35.58
2018-07-03T13:58:53.838Z,35.46
2018-07-03T14:00:00.176Z,35.72
2018-07-03T14:01:06.513Z,35.46
2018-07-03T14:02:12.685Z,35.48
2018-07-03T14:03:19.086Z,35.86
2018-07-03T14:04:26.255Z,35.66
2018-07-03T14:05:33.475Z,36.08
2018-07-03T14:06:39.763Z,35.86
2018-07-03T14:07:45.888Z,36.44
2018-07-03T14:08:52.170Z,36.31
2018-07-03T14:09:58.672Z,36.68
2018-07-03T14:11:06.461Z,36.70
2018-07-03T14:12:12.703Z,36.83
2018-07-03T14:13:18.833Z,36.35
2018-07-03T14:14:25.043Z,36.43
2018-07-03T14:15:31.147Z,37.04
2018-07-03T14:16:37.410Z,36.84
2018-07-03T14:17:43.656Z,36.51
2018-07-03T14:18:50.082Z,36.27
2018-07-03T14:19:56.408Z,36.73
2018-07-03T14:21:02.582Z,36.76
2018-07-03T14:22:09.128Z,37.25
2018-07-03T14:23:16.097Z,36.80
2018-07-03T14:24:22.225Z,36.56
2018-07-03T14:25:30.129Z,36.50
2018-07-03T14:26:36.494Z,36.90
2018-07-03T14:27:42.758Z,37.04
2018-07-03T14:28:49.795Z,36.81
2018-07-03T14:29:56.106Z,37.36
2018-07-03T14:31:02.185Z,37.36
2018-07-03T14:32:08.712Z,37.11
2018-07-03T14:33:14.836Z,37.70
2018-07-03T14:34:20.930Z,37.46
2018-07-03T14:35:27.179Z,37.66
2018-07-03T14:36:33.422Z,37.66
2018-07-03T14:37:39.451Z,36.80
2018-07-03T14:38:46.750Z,37.85
2018-07-03T14:39:52.829Z,37.66
2018-07-03T14:41:01.330Z,38.18
2018-07-03T14:42:07.435Z,37.57
2018-07-03T14:43:15.664Z,38.18
2018-07-03T14:44:22.127Z,37.80
2018-07-03T14:45:29.340Z,37.78
2018-07-03T14:46:35.644Z,37.46
2018-07-03T14:47:41.747Z,36.86
2018-07-03T14:48:47.992Z,36.97
2018-07-03T14:49:54.358Z,37.44
2018-07-03T14:51:00.632Z,37.68
2018-07-03T14:52:07.073Z,37.64
2018-07-03T14:53:13.088Z,38.50
2018-07-03T14:54:19.333Z,37.89
2018-07-03T14:55:25.542Z,38.01
2018-07-03T14:56:31.675Z,38.56
2018-07-03T14:57:37.886Z,38.04
2018-07-03T14:58:44.116Z,38.39
2018-07-03T15:01:04.376Z,38.78
2018-07-03T15:02:11.495Z,38.70
2018-07-03T15:03:17.602Z,38.67
2018-07-03T15:04:23.786Z,38.93
2018-07-03T15:05:30.138Z,38.23
2018-07-03T15:06:36.471Z,38.35
2018-07-03T15:07:43.110Z,38.94
2018-07-03T15:08:49.401Z,38.98
2018-07-03T15:09:56.568Z,38.47
2018-07-03T15:11:03.318Z,38.96
2018-07-03T15:12:09.543Z,38.54
2018-07-03T15:13:16.583Z,39.09
2018-07-03T15:14:24.292Z,38.46
2018-07-03T15:15:30.568Z,38.38
2018-07-03T15:16:36.818Z,38.76
2018-07-03T15:17:42.998Z,38.54
2018-07-03T15:18:53.961Z,38.90
2018-07-03T15:20:01.017Z,38.38
2018-07-03T15:21:07.136Z,38.75
2018-07-03T15:22:13.229Z,38.02
2018-07-03T15:23:20.652Z,39.08
2018-07-03T15:24:27.981Z,38.77
2018-07-03T15:25:34.212Z,39.03
2018-07-03T15:26:41.753Z,38.62
2018-07-03T15:27:47.992Z,39.14
2018-07-03T15:28:54.445Z,38.62
2018-07-03T15:30:01.886Z,38.89
2018-07-03T15:31:12.712Z,38.65
2018-07-03T15:32:18.976Z,38.81
2018-07-03T15:33:25.228Z,38.98
2018-07-03T15:34:33.933Z,38.46
2018-07-03T15:35:40.082Z,38.93
2018-07-03T15:36:46.614Z,39.06
2018-07-03T15:37:52.792Z,38.40
2018-07-03T15:38:58.939Z,39.02
2018-07-03T15:40:05.196Z,38.87
2018-07-03T15:41:11.627Z,39.07
2018-07-03T15:42:18.904Z,38.47
2018-07-03T15:43:26.500Z,38.83
2018-07-03T15:44:43.308Z,38.78
2018-07-03T15:45:49.532Z,38.45
2018-07-03T15:46:55.956Z,38.25
2018-07-03T15:48:02.156Z,38.52
2018-07-03T15:49:09.889Z,38.01
2018-07-03T15:50:16.714Z,37.91
2018-07-03T15:51:22.829Z,38.48
2018-07-03T15:52:31.485Z,38.58
2018-07-03T15:53:37.825Z,37.95
2018-07-03T15:54:45.791Z,38.29
2018-07-03T15:55:52.080Z,38.26
2018-07-03T15:56:59.205Z,38.26
2018-07-03T15:58:05.615Z,38.45
2018-07-03T15:59:11.794Z,38.74
2018-07-03T16:00:18.054Z,38.50
2018-07-03T16:01:24.447Z,38.85
2018-07-03T16:02:31.703Z,38.40
2018-07-03T16:04:04.344Z,38.23
2018-07-03T16:05:21.353Z,38.76
2018-07-03T16:06:37.923Z,38.77
2018-07-03T16:08:01.652Z,38.32
2018-07-03T16:09:11.970Z,38.31
2018-07-03T16:10:18.234Z,38.57
2018-07-03T16:11:24.371Z,38.48
2018-07-03T16:12:31.512Z,38.46
2018-07-03T16:13:38.421Z,38.62
2018-07-03T16:14:47.837Z,38.05
2018-07-03T16:15:54.809Z,38.52
2018-07-03T16:17:03.041Z,38.06
2018-07-03T16:18:10.790Z,38.62
2018-07-03T16:19:21.772Z,38.16
2018-07-03T16:20:33.159Z,38.08
2018-07-03T16:21:40.773Z,38.79
2018-07-03T16:22:46.924Z,38.33
2018-07-03T16:23:53.037Z,38.79
2018-07-03T16:24:59.270Z,38.19
2018-07-03T16:26:06.966Z,38.25
2018-07-03T16:27:13.354Z,38.30
2018-07-03T16:28:19.439Z,38.22
2018-07-03T16:29:25.605Z,38.80
2018-07-03T16:30:31.750Z,38.77
2018-07-03T16:31:40.828Z,38.10
2018-07-03T16:32:47.143Z,38.05
2018-07-03T16:33:54.584Z,37.98
2018-07-03T16:35:00.664Z,38.72
2018-07-03T16:36:06.952Z,38.24
2018-07-03T16:37:13.114Z,38.29
2018-07-03T16:38:20.271Z,38.02
2018-07-03T16:39:26.579Z,38.00
2018-07-03T16:40:32.892Z,38.02
2018-07-03T16:41:39.898Z,38.62
2018-07-03T16:42:46.430Z,38.59
2018-07-03T16:43:53.450Z,38.40
2018-07-03T16:44:59.661Z,38.14
2018-07-03T16:46:07.403Z,38.42
2018-07-03T16:47:13.612Z,38.35
2018-07-03T16:48:20.601Z,38.42
2018-07-03T16:49:26.902Z,38.26
2018-07-03T16:50:52.657Z,38.63
2018-07-03T16:51:59.410Z,38.34
2018-07-03T16:53:06.090Z,38.59
2018-07-03T16:54:12.158Z,38.70
2018-07-03T16:55:18.425Z,38.96
2018-07-03T16:56:24.505Z,38.99
2018-07-03T16:57:31.074Z,39.11
2018-07-03T16:58:38.471Z,39.31
2018-07-03T16:59:44.588Z,38.70
2018-07-03T17:00:50.707Z,39.35
2018-07-03T17:01:57.460Z,38.95
2018-07-03T17:03:10.135Z,39.04
2018-07-03T17:04:18.185Z,39.20
2018-07-03T17:05:24.813Z,39.59
2018-07-03T17:06:34.327Z,39.08
2018-07-03T17:07:40.685Z,39.03
2018-07-03T17:08:48.737Z,39.36
2018-07-03T17:09:54.735Z,39.61
2018-07-03T17:11:01.344Z,39.76
2018-07-03T17:12:08.400Z,39.62
2018-07-03T17:13:17.336Z,39.67
2018-07-03T17:14:23.890Z,39.17
2018-07-03T17:15:29.887Z,39.18
2018-07-03T17:16:35.847Z,39.04
2018-07-03T17:17:42.584Z,39.16
2018-07-03T17:18:56.861Z,39.25
2018-07-03T17:20:03.303Z,38.99
2018-07-03T17:21:10.530Z,38.90
2018-07-03T17:22:18.714Z,39.52
2018-07-03T17:23:27.615Z,39.51
2018-07-03T17:24:33.926Z,39.06
2018-07-03T17:25:40.096Z,39.49
2018-07-03T17:26:48.220Z,39.09
2018-07-03T17:27:55.643Z,38.94
2018-07-03T17:29:02.580Z,39.83
2018-07-03T17:30:09.284Z,39.56
2018-07-03T17:31:16.330Z,40.42
2018-07-03T17:32:22.419Z,40.22
2018-07-03T17:33:31.578Z,40.18
2018-07-03T17:34:39.571Z,41.00
2018-07-03T17:35:45.888Z,40.71
2018-07-03T17:36:52.025Z,41.60
2018-07-03T17:37:59.818Z,41.79
2018-07-03T17:39:14.992Z,41.92
2018-07-03T17:40:31.707Z,42.04
2018-07-03T17:41:49.156Z,41.77
2018-07-03T17:43:06.653Z,41.84
2018-07-03T17:44:24.365Z,42.68
2018-07-03T17:45:41.999Z,42.80
2018-07-03T17:46:48.306Z,43.01
2018-07-03T17:47:54.361Z,42.75
2018-07-03T17:49:05.407Z,42.83
2018-07-03T17:50:11.861Z,42.91
2018-07-03T17:51:19.368Z,42.34
2018-07-03T17:52:25.370Z,42.96
2018-07-03T17:53:31.623Z,43.19
2018-07-03T17:54:37.567Z,43.45
2018-07-03T17:55:43.929Z,42.95
2018-07-03T17:56:51.703Z,43.09
2018-07-03T17:57:58.452Z,42.94
2018-07-03T17:59:06.215Z,43.48
2018-07-03T18:00:12.722Z,42.98
2018-07-03T18:01:19.406Z,43.51
2018-07-03T18:02:25.703Z,43.78
2018-07-03T18:03:33.437Z,44.29
2018-07-03T18:04:39.874Z,43.58
2018-07-03T18:05:46.292Z,43.95
2018-07-03T18:06:53.339Z,44.07
2018-07-03T18:07:59.703Z,44.38
2018-07-03T18:09:08.843Z,43.88
2018-07-03T18:10:15.056Z,44.45
2018-07-03T18:11:22.588Z,44.05
2018-07-03T18:12:29.513Z,44.09
2018-07-03T18:13:36.286Z,44.48
2018-07-03T18:14:42.272Z,44.52
2018-07-03T18:15:48.551Z,44.44
2018-07-03T18:16:54.496Z,44.67
2018-07-03T18:18:00.532Z,44.03
2018-07-03T18:19:11.304Z,44.62
2018-07-03T18:20:17.264Z,44.10
2018-07-03T18:21:23.316Z,44.05
2018-07-03T18:22:29.260Z,44.15
2018-07-03T18:23:35.337Z,44.73
2018-07-03T18:24:41.891Z,44.87
2018-07-03T18:25:47.853Z,44.69
2018-07-03T18:26:53.791Z,44.36
2018-07-03T18:27:59.773Z,44.43
2018-07-03T18:29:06.253Z,44.27
2018-07-03T18:30:13.720Z,44.96
2018-07-03T18:31:19.815Z,45.18
2018-07-03T18:32:26.094Z,45.14
2018-07-03T18:33:32.980Z,45.12
2018-07-03T18:34:39.276Z,45.41
2018-07-03T18:35:45.361Z,45.26
2018-07-03T18:36:51.681Z,45.05
2018-07-03T18:37:59.399Z,45.38
2018-07-03T18:39:07.604Z,45.09
2018-07-03T18:40:15.533Z,45.11
2018-07-03T18:41:21.939Z,45.64
2018-07-03T18:42:29.027Z,46.14
2018-07-03T18:43:36.358Z,46.18
2018-07-03T18:44:42.371Z,46.28
2018-07-03T18:45:49.937Z,45.98
2018-07-03T18:46:56.073Z,45.85
2018-07-03T18:48:02.360Z,46.13
2018-07-03T18:49:09.143Z,46.33
2018-07-03T18:50:15.130Z,46.38
2018-07-03T18:51:21.333Z,46.31
2018-07-03T18:52:27.430Z,46.05
2018-07-03T18:53:35.152Z,46.25
2018-07-03T18:54:41.300Z,46.39
2018-07-03T18:55:47.613Z,46.29
2018-07-03T18:56:53.800Z,46.57
2018-07-03T18:58:02.314Z,46.42
2018-07-03T18:59:09.336Z,46.16
2018-07-03T19:00:16.089Z,46.54
2018-07-03T19:01:22.397Z,46.69
2018-07-03T19:02:29.014Z,46.79
2018-07-03T19:03:35.161Z,46.68
2018-07-03T19:04:41.934Z,46.88
2018-07-03T19:05:48.022Z,46.99
2018-07-03T19:06:54.713Z,46.91
2018-07-03T19:08:00.961Z,46.83
2018-07-03T19:09:09.653Z,47.26
2018-07-03T19:10:16.049Z,47.07
2018-07-03T19:11:22.153Z,47.24
2018-07-03T19:12:28.997Z,47.22
2018-07-03T19:13:35.090Z,47.33
2018-07-03T19:14:41.257Z,47.62
2018-07-03T19:15:47.998Z,47.56
2018-07-03T19:16:54.139Z,47.28
2018-07-03T19:18:00.850Z,47.61
2018-07-03T19:19:08.444Z,47.47
2018-07-03T19:20:14.711Z,47.51
2018-07-03T19:21:21.608Z,47.38
2018-07-03T19:22:29.575Z,47.52
2018-07-03T19:23:38.542Z,47.76
2018-07-03T19:24:46.235Z,47.81
2018-07-03T19:25:52.236Z,47.58
2018-07-03T19:26:58.386Z,47.87
2018-07-03T19:28:05.354Z,48.06
2018-07-03T19:29:14.100Z,48.08
2018-07-03T19:30:21.749Z,47.96
2018-07-03T19:31:27.745Z,47.93
2018-07-03T19:32:33.877Z,48.09
2018-07-03T19:33:41.347Z,48.12
2018-07-03T19:34:47.672Z,48.32
2018-07-03T19:35:55.340Z,48.29
2018-07-03T19:37:01.634Z,48.21
2018-07-03T19:38:07.728Z,48.24
2018-07-03T19:39:14.766Z,48.19
2018-07-03T19:40:21.405Z,48.13
2018-07-03T19:41:29.165Z,48.33
2018-07-03T19:42:35.485Z,48.36
2018-07-03T19:43:42.481Z,48.35
2018-07-03T19:44:49.838Z,48.31
2018-07-03T19:45:56.558Z,48.36